This is the latest recevied weather packets stored in our database for station/object K5EAA-13. If no packets are shown the sender has not sent any weather packets the latest 10 day(s).
| Time | Temp. | Humidity | Pressure | Rain* | Wind** | Luminosity | Snow |
|---|---|---|---|---|---|---|---|
| 1787936004 | 35° C | 44% | 1018.3 hPa | 0 mm | - | 673 W/m² | - |
| 1787935700 | 34.44° C | 48% | 1018.5 hPa | 0 mm | - | 663 W/m² | - |
| 1787935396 | 34.44° C | 47% | 1018.7 hPa | 0 mm | - | 658 W/m² | - |
| 1787935092 | 34.44° C | 48% | 1018.4 hPa | 0 mm | - | 650 W/m² | - |
| 1787934787 | 34.44° C | 48% | 1018.6 hPa | 0 mm | - | 642 W/m² | - |
| 1787934486 | 34.44° C | 48% | 1018.5 hPa | 0 mm | - | 634 W/m² | - |
| 1787934181 | 33.89° C | 49% | 1018.6 hPa | 0 mm | - | 625 W/m² | - |
| 1787933881 | 33.89° C | 51% | 1018.5 hPa | 0 mm | - | 620 W/m² | - |
| 1787933574 | 34.44° C | 50% | 1018.5 hPa | 0 mm | - | 609 W/m² | - |
| 1787933269 | 33.89° C | 49% | 1018.4 hPa | 0 mm | - | 598 W/m² | - |
| 1787932968 | 33.33° C | 51% | 1018.6 hPa | 0 mm | - | 587 W/m² | - |
| 1787932668 | 33.33° C | 52% | 1018.5 hPa | 0 mm | - | 575 W/m² | - |
| 1787932368 | 33.89° C | 52% | 1018.4 hPa | 0 mm | - | 562 W/m² | - |
| 1787932063 | 33.33° C | 53% | 1018.4 hPa | 0 mm | - | 550 W/m² | - |
| 1787931761 | 33.33° C | 54% | 1018.4 hPa | 0 mm | - | 535 W/m² | - |
| 1787931461 | 33.33° C | 53% | 1018.4 hPa | 0 mm | - | 522 W/m² | - |
| 1787931156 | 32.78° C | 55% | 1018.4 hPa | 0 mm | - | 509 W/m² | - |
| 1787930856 | 33.33° C | 55% | 1018.4 hPa | 0 mm | - | 493 W/m² | - |
| 1787930555 | 33.33° C | 55% | 1018.1 hPa | 0 mm | - | 475 W/m² | - |
| 1787930250 | 32.78° C | 56% | 1018.2 hPa | 0 mm | - | 457 W/m² | - |
| 1787929950 | 32.78° C | 57% | 1018.1 hPa | 0 mm | - | 440 W/m² | - |
| 1787929650 | 31.67° C | 60% | 1018.1 hPa | 0 mm | - | 419 W/m² | - |
| 1787929350 | 31.11° C | 60% | 1018.2 hPa | 0 mm | - | 402 W/m² | - |
| 1787929047 | 31.11° C | 61% | 1018.1 hPa | 0 mm | - | 385 W/m² | - |
| 1787928743 | 31.67° C | 58% | 1018 hPa | 0 mm | - | 364 W/m² | - |
* Rain latest hour (hover to see other rain measurements)
** Current wind speed in m/s (hover to see current wind gust speed)